Time;durP1;ratioP1;P1;durP2;ratioP2;P2;SDS_P1;SDS_P2;PMS_P1;PMS_P2;Temp;Humidity;BMP_temperature;BMP_pressure;BME280_temperature;BME280_humidity;BME280_pressure;Samples;Min_cycle;Max_cycle;Signal;HPM_P1;HPM_P2
2022/01/28 00:02:12;;;;;;;20.92;4.18;;;4.70;99.90;;;;;;4984275;28;20061;-72
2022/01/28 00:04:37;;;;;;;16.13;3.28;;;5.10;99.90;;;;;;4960104;28;20039;-72
2022/01/28 00:07:03;;;;;;;18.02;3.20;;;4.80;99.90;;;;;;4988557;28;20413;-72
2022/01/28 00:09:29;;;;;;;14.43;3.33;;;4.70;99.90;;;;;;4985401;28;20601;-72
2022/01/28 00:11:54;;;;;;;14.68;4.25;;;4.70;99.90;;;;;;4986800;28;20429;-72
2022/01/28 00:14:47;;;;;;;13.10;2.70;;;4.90;99.90;;;;;;4985653;28;20042;-72
2022/01/28 00:17:48;;;;;;;11.98;2.42;;;4.60;99.90;;;;;;4981577;28;20401;-71
2022/01/28 00:36:43;;;;;;;17.58;3.55;;;4.80;99.90;;;;;;4991340;28;20401;-72
2022/01/28 00:39:08;;;;;;;23.95;4.15;;;4.80;99.90;;;;;;4996451;28;20042;-72
2022/01/28 00:41:34;;;;;;;17.83;2.58;;;4.90;99.90;;;;;;4957040;28;20045;-72
2022/01/28 00:44:00;;;;;;;15.43;3.60;;;4.90;99.90;;;;;;4987827;28;20040;-72
2022/01/28 00:46:25;;;;;;;17.08;3.42;;;4.90;99.90;;;;;;4989372;28;20366;-72
2022/01/28 00:48:51;;;;;;;17.55;3.08;;;5.50;99.90;;;;;;4986459;28;20041;-72
2022/01/28 00:51:18;;;;;;;12.57;2.55;;;5.00;99.90;;;;;;4975641;28;20091;-72
2022/01/28 00:53:43;;;;;;;13.18;2.90;;;4.80;99.90;;;;;;4969028;28;20405;-72
2022/01/28 00:56:09;;;;;;;19.85;3.05;;;4.70;99.90;;;;;;4952331;28;20068;-72
2022/01/28 00:58:35;;;;;;;17.73;3.28;;;4.90;99.90;;;;;;4985624;28;20132;-73
2022/01/28 01:01:00;;;;;;;20.52;4.22;;;4.70;99.90;;;;;;4968397;28;20045;-73
2022/01/28 01:03:26;;;;;;;17.00;3.10;;;4.70;99.90;;;;;;4984923;28;20509;-73
2022/01/28 01:05:52;;;;;;;18.55;3.75;;;5.00;99.90;;;;;;4983010;28;20038;-72
2022/01/28 01:08:17;;;;;;;14.48;3.38;;;4.70;99.90;;;;;;4971667;28;20072;-72
2022/01/28 01:10:43;;;;;;;12.27;3.28;;;5.90;99.90;;;;;;4989819;28;20180;-72
2022/01/28 01:13:09;;;;;;;17.25;2.35;;;4.70;99.90;;;;;;4990306;28;20489;-73
2022/01/28 01:15:40;;;;;;;14.95;2.70;;;5.20;99.90;;;;;;4993899;28;20151;-72
2022/01/28 01:18:28;;;;;;;12.30;3.55;;;4.70;99.90;;;;;;4979568;28;20041;-72
2022/01/28 01:21:01;;;;;;;17.33;3.60;;;4.80;99.90;;;;;;4994046;28;20052;-72
2022/01/28 01:23:31;;;;;;;16.80;3.10;;;5.50;99.90;;;;;;4987228;28;20091;-73
2022/01/28 01:28:27;;;;;;;16.00;2.75;;;4.80;99.90;;;;;;4990868;28;20107;-72
2022/01/28 01:30:52;;;;;;;16.50;3.78;;;4.80;99.90;;;;;;4977016;28;20042;-72
2022/01/28 01:33:20;;;;;;;14.70;3.13;;;4.80;99.90;;;;;;4989650;28;20053;-72
2022/01/28 01:35:45;;;;;;;18.55;3.15;;;4.80;99.90;;;;;;4971428;28;20513;-73
2022/01/28 01:38:12;;;;;;;18.55;2.85;;;4.90;99.90;;;;;;4973504;28;20088;-73
2022/01/28 01:40:54;;;;;;;14.73;3.22;;;4.80;99.90;;;;;;4987157;28;20407;-73
2022/01/28 01:43:38;;;;;;;22.17;3.88;;;4.80;99.90;;;;;;4989721;28;20085;-72
2022/01/28 01:52:02;;;;;;;20.65;3.65;;;4.80;99.90;;;;;;4657382;28;10001301;-72
2022/01/28 01:54:42;;;;;;;15.10;3.53;;;4.90;99.90;;;;;;4991294;28;20125;-72
2022/01/28 01:57:10;;;;;;;13.35;2.45;;;4.90;99.90;;;;;;4991820;28;20096;-72
2022/01/28 01:59:37;;;;;;;10.07;2.60;;;5.80;99.90;;;;;;4992062;28;20083;-72
2022/01/28 02:02:04;;;;;;;20.20;4.57;;;5.00;99.90;;;;;;4986394;28;20050;-72
2022/01/28 02:04:29;;;;;;;12.43;2.55;;;4.90;99.90;;;;;;4992074;28;20049;-72
2022/01/28 02:06:56;;;;;;;13.38;2.50;;;4.90;99.90;;;;;;4990425;28;20045;-72
2022/01/28 02:09:22;;;;;;;19.30;3.38;;;5.40;99.90;;;;;;4971582;28;20148;-72
2022/01/28 02:11:47;;;;;;;11.38;2.90;;;6.70;99.90;;;;;;4988996;28;20037;-72
2022/01/28 02:14:14;;;;;;;16.25;3.70;;;4.90;99.90;;;;;;4973324;28;20115;-72
2022/01/28 02:16:39;;;;;;;14.15;3.92;;;4.90;99.90;;;;;;4992279;28;20038;-72
2022/01/28 02:19:05;;;;;;;20.92;4.88;;;4.90;99.90;;;;;;4991482;28;20060;-72
2022/01/28 02:21:44;;;;;;;23.30;3.85;;;4.90;99.90;;;;;;4997015;28;20034;-72
2022/01/28 02:24:11;;;;;;;13.57;4.07;;;4.90;99.90;;;;;;4995967;28;20041;-72
2022/01/28 02:26:37;;;;;;;19.15;4.90;;;5.00;99.90;;;;;;4992419;28;20409;-72
2022/01/28 02:29:10;;;;;;;18.98;4.93;;;5.00;99.90;;;;;;4994574;28;20062;-72
2022/01/28 02:31:36;;;;;;;23.20;4.47;;;5.00;99.90;;;;;;4973728;28;20052;-72
2022/01/28 02:34:04;;;;;;;13.60;3.50;;;5.00;99.90;;;;;;4989147;28;20038;-72
2022/01/28 02:36:30;;;;;;;22.40;4.82;;;5.50;99.90;;;;;;4990779;28;20452;-72
2022/01/28 02:38:58;;;;;;;20.67;3.65;;;5.00;99.90;;;;;;4993723;28;20033;-72
2022/01/28 02:41:27;;;;;;;31.48;5.05;;;5.10;99.90;;;;;;4986288;28;20046;-72
2022/01/28 02:46:40;;;;;;;18.92;4.32;;;5.00;99.90;;;;;;5000607;28;20068;-72
2022/01/28 02:49:09;;;;;;;15.48;4.50;;;5.10;99.90;;;;;;4990373;28;20084;-72
2022/01/28 02:51:35;;;;;;;19.35;5.38;;;5.00;99.90;;;;;;4973118;28;20077;-72
2022/01/28 02:54:12;;;;;;;25.00;4.28;;;5.10;99.90;;;;;;4989468;28;20042;-72
2022/01/28 02:56:40;;;;;;;16.23;3.95;;;5.00;99.90;;;;;;4990508;28;20081;-72
2022/01/28 02:59:07;;;;;;;23.73;4.10;;;5.00;99.90;;;;;;4979710;28;20048;-72
2022/01/28 03:01:33;;;;;;;27.17;4.90;;;5.00;99.90;;;;;;4989225;28;20457;-72
2022/01/28 03:04:02;;;;;;;29.25;6.07;;;5.00;99.90;;;;;;5001418;28;20412;-72
2022/01/28 03:06:28;;;;;;;20.83;4.32;;;5.00;99.90;;;;;;4972749;28;20041;-72
2022/01/28 03:08:59;;;;;;;25.95;4.97;;;5.00;99.90;;;;;;4987131;28;20033;-72
2022/01/28 03:11:44;;;;;;;23.55;4.47;;;5.10;99.90;;;;;;4986853;28;20077;-72
2022/01/28 03:16:50;;;;;;;21.45;4.25;;;5.00;99.90;;;;;;4988567;28;20038;-72
2022/01/28 03:19:20;;;;;;;30.35;6.18;;;5.10;99.90;;;;;;4993523;28;20095;-72
2022/01/28 03:21:54;;;;;;;23.45;4.25;;;5.10;99.90;;;;;;4987036;28;20100;-72
2022/01/28 03:24:24;;;;;;;24.85;4.18;;;5.30;99.90;;;;;;4987821;28;20251;-72
2022/01/28 03:26:55;;;;;;;29.30;5.47;;;5.10;99.90;;;;;;4989394;28;20056;-72
2022/01/28 03:29:20;;;;;;;26.30;4.63;;;5.10;99.90;;;;;;4990344;28;20548;-72
2022/01/28 03:31:46;;;;;;;23.00;4.70;;;5.20;99.90;;;;;;4990387;28;21248;-72
2022/01/28 03:34:12;;;;;;;24.80;4.57;;;5.20;99.90;;;;;;4977038;28;20542;-72
2022/01/28 03:36:38;;;;;;;22.98;5.07;;;5.90;99.90;;;;;;4993472;28;20033;-72
2022/01/28 03:39:04;;;;;;;24.27;4.93;;;5.20;99.90;;;;;;4990908;28;20049;-72
2022/01/28 03:41:30;;;;;;;23.40;5.63;;;5.30;99.90;;;;;;4991355;28;20080;-71
2022/01/28 03:43:58;;;;;;;24.60;4.10;;;5.30;99.90;;;;;;4989607;28;20069;-72
2022/01/28 03:46:28;;;;;;;19.60;4.03;;;5.30;99.90;;;;;;4982360;28;20041;-71
2022/01/28 03:48:54;;;;;;;17.83;5.65;;;5.30;99.90;;;;;;4988865;28;20022;-72
2022/01/28 03:51:21;;;;;;;15.05;3.63;;;5.30;99.90;;;;;;4989882;28;20061;-72
2022/01/28 03:53:47;;;;;;;15.38;4.28;;;5.30;99.90;;;;;;4989714;28;20077;-72
2022/01/28 03:56:14;;;;;;;18.60;4.20;;;5.30;99.90;;;;;;4950769;28;20096;-72
2022/01/28 03:58:39;;;;;;;21.15;3.60;;;5.30;99.90;;;;;;4990331;28;20038;-72
2022/01/28 04:01:12;;;;;;;20.17;4.00;;;5.20;99.90;;;;;;4982352;28;20061;-72
2022/01/28 04:03:48;;;;;;;18.85;4.45;;;5.20;99.90;;;;;;4988368;28;20052;-72
2022/01/28 04:11:31;;;;;;;18.45;5.03;;;5.20;99.90;;;;;;4991257;28;20418;-72
2022/01/28 04:19:33;;;;;;;16.63;3.50;;;5.30;99.90;;;;;;4983278;28;20038;-72
2022/01/28 04:21:59;;;;;;;20.23;5.25;;;5.30;99.90;;;;;;5006844;28;20042;-72
2022/01/28 04:24:25;;;;;;;18.17;3.75;;;5.30;99.90;;;;;;4991764;28;20037;-72
2022/01/28 04:26:51;;;;;;;17.20;3.78;;;5.20;99.90;;;;;;4987089;28;20068;-72
2022/01/28 04:29:16;;;;;;;13.82;3.38;;;5.20;99.90;;;;;;4971624;28;20105;-71
2022/01/28 04:31:45;;;;;;;16.67;3.67;;;5.10;99.90;;;;;;4975515;28;20654;-71
2022/01/28 04:34:15;;;;;;;19.25;4.25;;;5.60;99.90;;;;;;4977572;28;20030;-71
2022/01/28 04:39:38;;;;;;;21.60;3.75;;;4.90;99.90;;;;;;5006862;28;20062;-72
2022/01/28 04:44:53;;;;;;;22.75;4.53;;;4.80;99.90;;;;;;4987816;28;20046;-72
2022/01/28 04:47:24;;;;;;;17.23;4.18;;;4.70;99.90;;;;;;4984447;28;20113;-72
2022/01/28 04:50:03;;;;;;;30.27;6.25;;;5.10;99.90;;;;;;4993569;28;20050;-72
2022/01/28 05:27:28;;;;;;;24.48;5.32;;;4.60;99.90;;;;;;4988285;28;20046;-71
2022/01/28 05:29:54;;;;;;;18.33;4.07;;;4.50;99.90;;;;;;4981152;28;20050;-73
2022/01/28 05:32:19;;;;;;;21.70;4.47;;;4.50;99.90;;;;;;4986091;28;20112;-72
2022/01/28 05:34:45;;;;;;;19.75;4.07;;;4.50;99.90;;;;;;4992408;28;20405;-72
2022/01/28 05:37:11;;;;;;;21.98;4.18;;;4.40;99.90;;;;;;4987214;28;20310;-72
2022/01/28 05:39:36;;;;;;;22.83;4.60;;;4.60;99.90;;;;;;4980749;28;20044;-73
2022/01/28 05:42:03;;;;;;;24.00;4.15;;;4.40;99.90;;;;;;4992991;28;20042;-73
2022/01/28 05:44:29;;;;;;;19.88;3.88;;;4.40;99.90;;;;;;4994293;28;20042;-73
2022/01/28 05:46:57;;;;;;;22.90;4.38;;;4.40;99.90;;;;;;4991972;28;20042;-73
2022/01/28 05:49:23;;;;;;;22.55;4.40;;;4.40;99.90;;;;;;4991605;28;20045;-73
2022/01/28 05:51:49;;;;;;;23.42;5.07;;;4.40;99.90;;;;;;4975760;28;20052;-73
2022/01/28 05:54:15;;;;;;;23.80;4.80;;;4.50;99.90;;;;;;4993303;28;20053;-73
2022/01/28 05:56:40;;;;;;;21.35;4.82;;;4.60;99.90;;;;;;4993424;28;20037;-72
2022/01/28 05:59:06;;;;;;;24.65;5.03;;;4.50;99.90;;;;;;4987021;28;20026;-71
2022/01/28 06:01:32;;;;;;;19.40;4.07;;;4.60;99.90;;;;;;4968366;28;20133;-71
2022/01/28 06:03:58;;;;;;;19.92;3.92;;;4.90;99.90;;;;;;4993388;28;20038;-73
2022/01/28 06:06:24;;;;;;;25.98;4.70;;;4.70;99.90;;;;;;4975526;28;20486;-73
2022/01/28 06:08:52;;;;;;;14.50;3.47;;;4.70;99.90;;;;;;5004102;28;20087;-73
2022/01/28 06:11:19;;;;;;;16.58;5.25;;;4.70;99.90;;;;;;4986705;28;20042;-73
2022/01/28 06:13:45;;;;;;;17.05;3.35;;;4.70;99.90;;;;;;4991537;28;20052;-73
2022/01/28 06:16:12;;;;;;;20.50;4.82;;;4.70;99.90;;;;;;4993510;28;20034;-73
2022/01/28 06:18:38;;;;;;;13.23;5.32;;;4.70;99.90;;;;;;4971995;28;20039;-72
2022/01/28 06:21:04;;;;;;;20.70;3.67;;;4.90;99.90;;;;;;4985724;28;20040;-73
2022/01/28 06:23:30;;;;;;;16.15;3.90;;;4.80;99.90;;;;;;4985010;28;20091;-72
2022/01/28 06:25:56;;;;;;;22.23;4.22;;;4.80;99.90;;;;;;5002567;28;20140;-72
2022/01/28 06:28:22;;;;;;;22.50;5.03;;;4.80;99.90;;;;;;4990771;28;20528;-72
2022/01/28 06:30:48;;;;;;;23.92;4.18;;;4.80;99.90;;;;;;4968681;28;20054;-73
2022/01/28 06:33:14;;;;;;;18.98;4.78;;;4.80;99.90;;;;;;4990216;28;20461;-72
2022/01/28 06:35:45;;;;;;;20.67;3.90;;;5.10;99.90;;;;;;4965418;28;20561;-72
2022/01/28 06:38:11;;;;;;;21.50;4.30;;;4.80;99.90;;;;;;5006058;28;20858;-72
2022/01/28 06:40:37;;;;;;;20.92;4.05;;;4.80;99.90;;;;;;5001008;28;20311;-72
2022/01/28 06:43:04;;;;;;;15.73;3.60;;;4.90;99.90;;;;;;4989690;28;20038;-73
2022/01/28 06:45:30;;;;;;;19.92;4.03;;;4.90;99.90;;;;;;4989138;28;20107;-73
2022/01/28 06:47:55;;;;;;;27.50;6.18;;;4.90;99.90;;;;;;4987564;28;20124;-72
2022/01/28 06:50:21;;;;;;;22.83;4.10;;;4.80;99.90;;;;;;4975198;28;20049;-73
2022/01/28 06:52:47;;;;;;;20.98;4.93;;;4.70;99.90;;;;;;4984121;28;20045;-72
2022/01/28 06:55:14;;;;;;;22.30;4.07;;;4.60;99.90;;;;;;4987509;28;20052;-72
2022/01/28 06:57:40;;;;;;;20.95;3.45;;;4.90;99.90;;;;;;4992567;28;20104;-73
2022/01/28 07:00:08;;;;;;;19.88;4.40;;;5.40;99.90;;;;;;4991160;28;20120;-72
2022/01/28 07:02:34;;;;;;;21.13;4.82;;;4.50;99.90;;;;;;4967892;28;20107;-72
2022/01/28 07:04:59;;;;;;;22.13;4.22;;;4.50;99.90;;;;;;4974085;28;20092;-72
2022/01/28 07:07:26;;;;;;;24.45;3.45;;;4.50;99.90;;;;;;5006823;28;20113;-72
2022/01/28 07:09:53;;;;;;;26.38;5.32;;;4.50;99.90;;;;;;4992556;28;20042;-74
2022/01/28 07:12:22;;;;;;;25.00;4.93;;;4.50;99.90;;;;;;4988990;28;20133;-72
2022/01/28 07:14:48;;;;;;;16.25;4.80;;;4.30;99.90;;;;;;4981266;28;20066;-72
2022/01/28 07:17:17;;;;;;;28.42;4.90;;;4.30;99.90;;;;;;4986206;28;20555;-73
2022/01/28 07:19:42;;;;;;;20.67;4.80;;;4.50;99.90;;;;;;4985612;28;20034;-73
2022/01/28 07:22:08;;;;;;;25.92;3.67;;;4.10;99.90;;;;;;4989840;28;20038;-73
2022/01/28 07:24:34;;;;;;;24.00;5.13;;;4.10;99.90;;;;;;4987905;28;20046;-73
2022/01/28 07:27:03;;;;;;;21.50;4.28;;;4.20;99.90;;;;;;4979360;28;20041;-72
2022/01/28 07:29:31;;;;;;;24.80;4.72;;;4.10;99.90;;;;;;4972428;28;20570;-73
2022/01/28 07:31:57;;;;;;;28.05;5.00;;;4.20;99.90;;;;;;4967716;28;20403;-72
2022/01/28 07:34:24;;;;;;;27.50;4.80;;;4.90;99.90;;;;;;4966794;28;20045;-72
2022/01/28 07:36:50;;;;;;;25.05;4.38;;;4.20;99.90;;;;;;4967769;28;20038;-73
2022/01/28 07:39:15;;;;;;;23.35;4.78;;;4.70;99.90;;;;;;4965464;28;20125;-72
2022/01/28 07:41:41;;;;;;;20.52;3.67;;;4.20;99.90;;;;;;4937977;28;20537;-73
2022/01/28 07:44:26;;;;;;;26.80;4.59;;;4.20;99.90;;;;;;4480669;28;10001477;-73
2022/01/28 07:46:52;;;;;;;25.75;5.97;;;4.20;99.90;;;;;;857924;28;10001922;-73
2022/01/28 07:49:18;;;;;;;23.35;4.15;;;4.40;99.90;;;;;;4959875;28;20045;-73
2022/01/28 07:51:44;;;;;;;17.63;4.53;;;4.40;99.90;;;;;;4955250;28;20038;-73
2022/01/28 07:54:10;;;;;;;22.50;4.00;;;4.40;99.90;;;;;;4970999;28;20049;-73
2022/01/28 07:56:35;;;;;;;22.10;4.25;;;4.40;99.90;;;;;;4966286;28;20054;-73
2022/01/28 07:59:02;;;;;;;22.38;4.55;;;4.50;99.90;;;;;;4965478;28;20578;-73
2022/01/28 08:01:27;;;;;;;19.60;3.42;;;4.90;99.90;;;;;;4965585;28;20483;-73
2022/01/28 08:03:53;;;;;;;16.75;3.75;;;4.50;99.90;;;;;;4962868;28;20049;-72
2022/01/28 08:06:19;;;;;;;19.83;4.65;;;4.60;99.90;;;;;;4969313;28;20050;-72
2022/01/28 08:08:45;;;;;;;27.50;6.38;;;4.50;99.90;;;;;;4955990;28;20057;-73
2022/01/28 08:11:10;;;;;;;22.33;5.82;;;4.50;99.90;;;;;;4986195;28;20080;-73
2022/01/28 08:13:36;;;;;;;19.58;4.32;;;4.50;99.90;;;;;;4969876;28;20053;-73
2022/01/28 08:16:03;;;;;;;14.70;3.90;;;4.40;99.90;;;;;;4967474;28;20057;-73
2022/01/28 08:18:29;;;;;;;21.58;4.18;;;4.40;99.90;;;;;;4969205;28;20755;-73
2022/01/28 08:20:54;;;;;;;20.88;4.13;;;4.40;99.90;;;;;;4972557;28;20034;-73
2022/01/28 08:23:20;;;;;;;21.92;6.50;;;4.40;99.90;;;;;;4962794;28;20051;-73
2022/01/28 08:25:46;;;;;;;22.27;4.20;;;4.40;99.90;;;;;;4986025;28;20038;-73
2022/01/28 08:28:12;;;;;;;24.95;4.55;;;4.30;99.90;;;;;;4984345;28;20057;-73
2022/01/28 08:30:39;;;;;;;27.75;5.93;;;4.40;99.90;;;;;;5007700;28;20057;-73
2022/01/28 08:33:06;;;;;;;18.25;4.15;;;4.40;99.90;;;;;;5015492;28;20129;-73
2022/01/28 08:35:37;;;;;;;20.52;4.07;;;4.40;99.90;;;;;;4990418;28;20106;-73
2022/01/28 08:38:06;;;;;;;31.03;5.57;;;4.30;99.90;;;;;;4982226;28;20042;-72
2022/01/28 08:40:32;;;;;;;23.95;4.57;;;4.40;99.90;;;;;;4997724;28;20439;-73
2022/01/28 08:42:58;;;;;;;19.55;3.78;;;4.40;99.90;;;;;;4981203;28;20050;-73
2022/01/28 08:45:24;;;;;;;24.95;4.80;;;4.50;99.90;;;;;;4997019;28;20408;-72
2022/01/28 08:47:50;;;;;;;28.50;4.10;;;4.50;99.90;;;;;;4995902;28;20052;-72
2022/01/28 08:50:16;;;;;;;27.13;4.28;;;4.50;99.90;;;;;;5003047;28;20035;-72
2022/01/28 08:52:46;;;;;;;20.63;4.40;;;4.60;99.90;;;;;;5002267;28;20049;-72
2022/01/28 08:55:12;;;;;;;22.52;4.22;;;5.10;99.90;;;;;;4986993;28;20575;-72
2022/01/28 08:57:43;;;;;;;17.98;3.88;;;4.80;99.90;;;;;;4998875;28;20030;-71
2022/01/28 09:00:12;;;;;;;23.90;5.17;;;5.00;99.90;;;;;;4959507;28;20046;-71
2022/01/28 09:02:38;;;;;;;30.42;4.88;;;5.10;99.90;;;;;;4982800;28;20300;-71
2022/01/28 09:05:04;;;;;;;25.15;4.68;;;5.10;99.90;;;;;;4992273;28;20052;-71
2022/01/28 09:07:30;;;;;;;28.27;4.55;;;5.10;99.90;;;;;;4995515;28;20037;-71
2022/01/28 09:10:02;;;;;;;18.15;4.25;;;5.00;99.90;;;;;;4977464;28;20131;-71
2022/01/28 09:14:53;;;;;;;21.23;4.88;;;5.00;99.90;;;;;;4994578;28;20041;-72
2022/01/28 09:17:21;;;;;;;20.75;4.00;;;5.00;99.90;;;;;;4995356;28;20045;-72
2022/01/28 09:19:48;;;;;;;28.25;5.65;;;5.10;99.90;;;;;;4978054;28;20401;-72
2022/01/28 09:22:13;;;;;;;25.30;4.95;;;5.50;99.90;;;;;;5011029;28;20046;-72
2022/01/28 09:24:39;;;;;;;27.92;7.47;;;5.10;99.90;;;;;;4995432;28;20042;-72
2022/01/28 09:27:06;;;;;;;26.42;4.13;;;5.10;99.90;;;;;;4990243;28;20288;-73
2022/01/28 09:29:31;;;;;;;23.88;4.53;;;5.20;99.90;;;;;;4975594;28;20089;-72
2022/01/28 09:31:57;;;;;;;20.98;4.25;;;5.30;99.90;;;;;;4992806;28;20573;-73
2022/01/28 09:34:23;;;;;;;23.90;4.53;;;5.30;99.90;;;;;;4976374;28;20127;-73
2022/01/28 09:36:48;;;;;;;26.83;5.25;;;5.40;99.90;;;;;;4993197;28;20701;-72
2022/01/28 09:39:14;;;;;;;22.25;4.75;;;5.50;99.90;;;;;;4984366;28;20060;-73
2022/01/28 09:41:40;;;;;;;17.83;4.20;;;5.60;99.90;;;;;;4993428;28;20030;-73
2022/01/28 09:44:09;;;;;;;14.90;3.85;;;5.70;99.90;;;;;;4977430;28;20069;-72
2022/01/28 09:46:35;;;;;;;22.90;4.90;;;5.80;99.90;;;;;;4994666;28;20042;-73
2022/01/28 09:49:02;;;;;;;27.23;5.03;;;6.70;99.90;;;;;;4984644;28;20034;-72
2022/01/28 09:51:28;;;;;;;20.73;4.00;;;5.90;99.90;;;;;;4988934;28;20666;-72
2022/01/28 09:53:54;;;;;;;18.30;4.55;;;6.00;99.90;;;;;;4991525;28;20042;-72
2022/01/28 09:56:21;;;;;;;22.77;5.22;;;6.10;99.90;;;;;;4972242;28;20104;-72
2022/01/28 09:58:46;;;;;;;25.10;5.18;;;6.20;99.90;;;;;;5000043;28;20049;-73
2022/01/28 10:01:12;;;;;;;24.23;4.45;;;6.30;99.90;;;;;;4987007;28;20450;-73
2022/01/28 10:03:59;;;;;;;22.50;4.28;;;6.40;99.90;;;;;;2639001;28;10002463;-72
2022/01/28 10:06:33;;;;;;;22.05;4.70;;;6.50;99.90;;;;;;3263133;28;10001364;-73
2022/01/28 10:09:02;;;;;;;29.65;4.90;;;7.00;99.90;;;;;;4980594;28;20089;-73
2022/01/28 10:11:28;;;;;;;26.27;5.28;;;6.50;99.90;;;;;;4984671;28;20042;-73
2022/01/28 10:13:56;;;;;;;26.33;6.05;;;6.60;99.90;;;;;;4968376;28;20065;-72
2022/01/28 10:16:30;;;;;;;26.73;4.40;;;6.60;99.90;;;;;;4970612;28;20108;-73
2022/01/28 10:19:07;;;;;;;21.50;4.35;;;7.30;99.90;;;;;;5000728;28;20057;-72
2022/01/28 10:21:34;;;;;;;24.60;4.65;;;6.60;99.90;;;;;;4990130;28;20061;-72
2022/01/28 10:24:06;;;;;;;23.33;4.55;;;6.60;99.90;;;;;;4993529;28;20049;-73
2022/01/28 10:26:41;;;;;;;23.98;4.35;;;6.60;99.90;;;;;;4968946;28;20034;-73
2022/01/28 10:29:10;;;;;;;21.30;4.72;;;6.60;99.90;;;;;;4989443;28;20164;-73
2022/01/28 10:31:38;;;;;;;26.00;5.07;;;6.70;99.90;;;;;;4996211;28;20064;-72
2022/01/28 10:34:20;;;;;;;25.92;3.90;;;6.70;99.90;;;;;;4970720;28;20088;-73
2022/01/28 10:36:47;;;;;;;17.15;3.83;;;6.70;99.90;;;;;;4990385;28;20036;-73
2022/01/28 10:39:22;;;;;;;21.65;4.50;;;6.70;99.90;;;;;;4991722;28;20053;-73
2022/01/28 10:41:52;;;;;;;26.95;6.05;;;6.70;99.90;;;;;;4969690;28;20053;-72
2022/01/28 10:44:18;;;;;;;20.30;5.63;;;6.70;99.90;;;;;;4991969;28;20042;-74
2022/01/28 10:46:52;;;;;;;22.67;4.75;;;6.70;99.90;;;;;;4989110;28;20097;-73
2022/01/28 10:49:18;;;;;;;27.83;5.80;;;6.70;99.90;;;;;;4990683;28;20033;-73
2022/01/28 10:51:48;;;;;;;20.80;4.35;;;6.70;99.90;;;;;;4990315;28;20050;-72
2022/01/28 10:54:19;;;;;;;21.20;4.85;;;6.80;99.90;;;;;;5003601;28;20398;-73
2022/01/28 10:56:54;;;;;;;28.50;4.78;;;6.80;99.90;;;;;;4990859;28;20037;-73
2022/01/28 10:59:24;;;;;;;20.58;4.35;;;6.90;99.90;;;;;;4998188;28;20060;-72
2022/01/28 11:01:51;;;;;;;22.63;5.90;;;7.00;99.90;;;;;;4991104;28;20125;-74
2022/01/28 11:04:19;;;;;;;17.58;4.25;;;7.20;99.90;;;;;;4983737;28;20042;-74
2022/01/28 11:06:46;;;;;;;19.75;4.18;;;7.10;99.90;;;;;;4991330;28;20057;-72
2022/01/28 11:09:13;;;;;;;22.48;4.53;;;7.10;99.90;;;;;;4987692;28;20042;-73
2022/01/28 11:11:40;;;;;;;27.77;5.00;;;7.20;99.90;;;;;;4995122;28;20042;-73
2022/01/28 11:14:06;;;;;;;27.70;4.60;;;7.20;99.90;;;;;;4969665;28;20124;-73
2022/01/28 11:16:32;;;;;;;20.23;5.05;;;7.20;99.90;;;;;;4971275;28;20034;-72
2022/01/28 11:18:59;;;;;;;19.75;4.55;;;7.20;99.90;;;;;;5004477;28;20077;-71
2022/01/28 11:21:46;;;;;;;21.73;3.67;;;7.20;99.90;;;;;;4985062;28;20058;-71
2022/01/28 11:24:34;;;;;;;25.27;5.32;;;7.20;99.90;;;;;;4992864;28;20041;-71
2022/01/28 11:27:23;;;;;;;34.60;5.13;;;7.30;99.90;;;;;;4974310;28;20129;-71
2022/01/28 11:29:49;;;;;;;21.10;5.50;;;7.40;99.90;;;;;;4989683;28;20520;-72
2022/01/28 11:32:18;;;;;;;20.75;4.88;;;7.40;99.90;;;;;;4999539;28;20057;-71
2022/01/28 11:35:08;;;;;;;16.80;4.28;;;7.50;99.90;;;;;;5003612;28;20038;-72
2022/01/28 11:37:35;;;;;;;22.13;4.47;;;7.60;99.90;;;;;;4992888;28;20073;-72
2022/01/28 11:40:07;;;;;;;20.00;3.78;;;7.60;99.90;;;;;;5004954;28;20038;-72
2022/01/28 11:42:34;;;;;;;15.18;4.55;;;7.60;99.90;;;;;;4990692;28;20038;-74
2022/01/28 11:45:02;;;;;;;17.38;3.83;;;7.50;99.90;;;;;;4991355;28;20080;-74
2022/01/28 11:47:35;;;;;;;20.10;3.83;;;7.40;99.90;;;;;;4986486;28;20048;-73
2022/01/28 11:50:12;;;;;;;18.85;3.35;;;7.40;99.90;;;;;;4991183;28;20497;-73
2022/01/28 11:52:41;;;;;;;20.42;3.50;;;7.40;99.90;;;;;;4986270;28;20038;-73
2022/01/28 11:55:23;;;;;;;14.43;3.50;;;7.30;99.90;;;;;;4990138;28;20041;-73
2022/01/28 11:58:07;;;;;;;18.17;3.53;;;7.30;99.90;;;;;;4983113;28;20041;-72
2022/01/28 12:00:44;;;;;;;23.70;4.30;;;7.50;99.90;;;;;;4990097;28;20462;-73
2022/01/28 12:03:28;;;;;;;20.38;3.38;;;7.80;99.90;;;;;;5003948;28;20041;-74
2022/01/28 12:06:05;;;;;;;25.27;4.25;;;8.10;99.90;;;;;;4988152;28;20049;-74
2022/01/28 12:08:32;;;;;;;28.35;5.88;;;8.10;99.90;;;;;;4978100;28;20037;-74
2022/01/28 12:11:02;;;;;;;18.00;4.38;;;7.90;99.90;;;;;;4990253;28;20052;-74
2022/01/28 12:13:32;;;;;;;20.13;3.72;;;;;;;;;;4990890;28;20111;-73
2022/01/28 12:16:02;;;;;;;15.45;3.13;;;8.40;99.90;;;;;;4991699;28;20042;-73
2022/01/28 12:18:53;;;;;;;17.27;4.55;;;8.90;99.90;;;;;;4948877;28;20173;-73
2022/01/28 12:21:31;;;;;;;24.90;4.60;;;9.20;99.90;;;;;;303318;28;10022539;-72
2022/01/28 12:24:19;;;;;;;23.08;3.58;;;9.10;99.90;;;;;;4832837;28;5002297;-73
2022/01/28 12:27:01;;;;;;;18.65;4.10;;;8.90;99.90;;;;;;4987501;28;20030;-73
2022/01/28 12:29:35;;;;;;;19.02;4.45;;;8.70;99.90;;;;;;4985990;28;20054;-72
2022/01/28 12:32:03;;;;;;;17.05;3.55;;;8.40;99.90;;;;;;4983766;28;20497;-72
2022/01/28 12:34:29;;;;;;;22.30;3.97;;;8.30;99.90;;;;;;4986081;28;20624;-73
2022/01/28 12:36:58;;;;;;;25.58;5.28;;;8.50;99.90;;;;;;4985284;28;20125;-72
2022/01/28 12:39:33;;;;;;;14.63;3.80;;;8.20;99.90;;;;;;4987747;28;20121;-72
2022/01/28 12:42:07;;;;;;;21.88;3.90;;;8.80;99.90;;;;;;4983102;28;20050;-73
2022/01/28 12:44:34;;;;;;;22.67;6.03;;;8.40;99.90;;;;;;4984751;28;20509;-74
2022/01/28 12:47:04;;;;;;;23.08;4.75;;;7.90;99.90;;;;;;4987239;28;20033;-74
2022/01/28 12:49:32;;;;;;;21.90;4.03;;;7.80;99.90;;;;;;4987668;28;20658;-73
2022/01/28 12:52:04;;;;;;;21.92;4.22;;;8.20;99.90;;;;;;4985768;28;20046;-73
2022/01/28 12:54:36;;;;;;;20.52;4.50;;;7.90;99.90;;;;;;4986883;28;20034;-73
2022/01/28 12:57:03;;;;;;;15.13;3.90;;;7.70;99.90;;;;;;4971338;28;20066;-73
2022/01/28 12:59:29;;;;;;;14.93;3.45;;;;;;;;;;4998852;28;20469;-73
2022/01/28 13:01:56;;;;;;;14.85;3.45;;;7.50;99.90;;;;;;4970718;28;20572;-74
2022/01/28 13:04:25;;;;;;;23.25;4.30;;;7.40;99.90;;;;;;4971571;28;20038;-73
2022/01/28 13:09:19;;;;;;;22.58;4.13;;;7.40;99.90;;;;;;4990924;28;20038;-73
2022/01/28 13:11:54;;;;;;;17.17;3.63;;;7.50;99.90;;;;;;4989705;28;20038;-73
2022/01/28 13:14:40;;;;;;;25.25;4.00;;;7.50;99.90;;;;;;4992548;28;20088;-73
2022/01/28 13:17:08;;;;;;;20.65;3.70;;;7.60;99.90;;;;;;4987271;28;20050;-74
2022/01/28 13:19:34;;;;;;;14.23;3.45;;;7.60;99.90;;;;;;5006054;28;20038;-73
2022/01/28 13:22:00;;;;;;;21.05;4.35;;;7.70;99.90;;;;;;4995310;28;20050;-73
2022/01/28 13:24:29;;;;;;;17.83;3.97;;;7.70;99.90;;;;;;4993485;28;20040;-73
2022/01/28 13:26:59;;;;;;;23.63;4.43;;;7.70;99.90;;;;;;4968053;28;20440;-73
2022/01/28 13:29:31;;;;;;;17.15;4.45;;;7.70;99.90;;;;;;5003751;28;20059;-73
2022/01/28 13:31:58;;;;;;;22.92;3.45;;;7.60;99.90;;;;;;4992569;28;20123;-72
2022/01/28 13:34:25;;;;;;;20.67;4.07;;;7.60;99.90;;;;;;4965969;28;20045;-72
2022/01/28 13:36:54;;;;;;;24.83;5.13;;;7.60;99.90;;;;;;4981848;28;20041;-72
2022/01/28 13:39:27;;;;;;;24.13;5.60;;;7.50;99.90;;;;;;4985234;28;20040;-72
2022/01/28 13:42:12;;;;;;;20.52;3.97;;;7.40;99.90;;;;;;4985515;28;20038;-73
2022/01/28 13:44:42;;;;;;;17.45;4.65;;;7.40;99.90;;;;;;4994065;28;20029;-72
2022/01/28 13:47:09;;;;;;;19.10;3.70;;;7.30;99.90;;;;;;5005201;28;20048;-71
2022/01/28 13:49:36;;;;;;;16.13;3.30;;;7.30;99.90;;;;;;5005001;28;20121;-71
2022/01/28 13:52:06;;;;;;;25.42;4.35;;;7.30;99.90;;;;;;4988275;28;20588;-72
2022/01/28 13:54:32;;;;;;;15.00;3.10;;;7.30;99.90;;;;;;4987279;28;20114;-72
2022/01/28 13:57:04;;;;;;;18.95;5.47;;;7.30;99.90;;;;;;4973457;28;20064;-72
2022/01/28 13:59:32;;;;;;;20.38;4.30;;;7.40;99.90;;;;;;5007213;28;20038;-71
2022/01/28 14:02:01;;;;;;;16.23;3.72;;;7.40;99.90;;;;;;4989141;28;20120;-72
2022/01/28 14:04:32;;;;;;;21.98;4.85;;;7.40;99.90;;;;;;5006886;28;20046;-72
2022/01/28 14:07:18;;;;;;;22.85;3.72;;;7.40;99.90;;;;;;4987465;28;20374;-72
2022/01/28 14:10:00;;;;;;;20.27;3.90;;;7.30;99.90;;;;;;4984204;28;20058;-72
2022/01/28 14:12:43;;;;;;;15.13;2.80;;;7.30;99.90;;;;;;4974912;28;20132;-72
2022/01/28 14:17:53;;;;;;;17.23;3.45;;;7.30;99.90;;;;;;4998131;28;20041;-72
2022/01/28 14:20:19;;;;;;;14.43;3.60;;;7.40;99.90;;;;;;4989541;28;20526;-72
2022/01/28 14:22:45;;;;;;;15.93;3.78;;;7.40;99.90;;;;;;4987461;28;20057;-72
2022/01/28 14:25:11;;;;;;;17.08;3.95;;;7.40;99.90;;;;;;4985055;28;20042;-72
2022/01/28 14:30:15;;;;;;;18.27;3.40;;;7.40;99.90;;;;;;4983807;28;20627;-73